Time;durP1;ratioP1;P1;durP2;ratioP2;P2;SDS_P1;SDS_P2;PMS_P1;PMS_P2;Temp;Humidity;BMP_temperature;BMP_pressure;BME280_temperature;BME280_humidity;BME280_pressure;Samples;Min_cycle;Max_cycle;Signal;HPM_P1;HPM_P2
2022/10/27 00:02:20;;;;;;;;;;;;;;;15.17;85.09;102080.38;5024838;28;19960;-59
2022/10/27 00:04:45;;;;;;;;;;;;;;;15.16;85.24;102076.03;5023494;28;19925;-59
2022/10/27 00:07:10;;;;;;;;;;;;;;;15.13;85.06;102076.38;5024537;28;19917;-58
2022/10/27 00:09:35;;;;;;;;;;;;;;;15.13;85.19;102075.53;5026199;28;19921;-59
2022/10/27 00:12:00;;;;;;;;;;;;;;;15.11;85.10;102070.38;5026686;28;19963;-57
2022/10/27 00:14:26;;;;;;;;;;;;;;;15.10;85.10;102074.03;5029839;28;19925;-57
2022/10/27 00:16:53;;;;;;;;;;;;;;;15.10;84.80;102075.88;5028845;28;20293;-59
2022/10/27 00:19:18;;;;;;;;;;;;;;;15.08;84.96;102073.38;5026039;28;19918;-59
2022/10/27 00:21:43;;;;;;;;;;;;;;;15.08;85.06;102069.88;5025866;28;19917;-59
2022/10/27 00:24:09;;;;;;;;;;;;;;;15.07;84.81;102076.22;5026797;28;19940;-59
2022/10/27 00:26:34;;;;;;;;;;;;;;;15.06;85.23;102080.75;5024644;28;19928;-59
2022/10/27 00:28:59;;;;;;;;;;;;;;;15.04;85.11;102072.06;5025947;28;21716;-59
2022/10/27 00:31:24;;;;;;;;;;;;;;;15.05;84.83;102083.59;5025302;28;20051;-58
2022/10/27 00:33:50;;;;;;;;;;;;;;;15.05;84.72;102088.94;5025513;28;19917;-58
2022/10/27 00:36:20;;;;;;;;;;;;;;;15.03;84.87;102083.72;5024336;28;20392;-59
2022/10/27 00:38:45;;;;;;;;;;;;;;;15.02;84.95;102083.91;5030477;28;19972;-58
2022/10/27 00:41:23;;;;;;;;;;;;;;;15.01;84.80;102087.59;5026612;28;19983;-59
2022/10/27 00:43:48;;;;;;;;;;;;;;;15.01;84.78;102084.91;5028061;28;19917;-59
2022/10/27 00:46:18;;;;;;;;;;;;;;;14.99;84.85;102087.75;5029080;28;19917;-58
2022/10/27 00:48:44;;;;;;;;;;;;;;;14.99;84.73;102087.75;5029842;28;19917;-59
2022/10/27 00:51:12;;;;;;;;;;;;;;;14.97;84.96;102080.91;5027322;28;19925;-59
2022/10/27 00:53:37;;;;;;;;;;;;;;;14.95;84.79;102085.59;5027222;28;19979;-59
2022/10/27 00:56:03;;;;;;;;;;;;;;;14.94;84.58;102089.28;5034736;28;20362;-58
2022/10/27 00:58:28;;;;;;;;;;;;;;;14.92;84.58;102097.47;5031863;28;19924;-58
2022/10/27 01:00:54;;;;;;;;;;;;;;;14.88;84.29;102099.66;5029813;28;20012;-59
2022/10/27 01:03:21;;;;;;;;;;;;;;;14.85;84.52;102096.47;5031457;28;20500;-59
2022/10/27 01:05:46;;;;;;;;;;;;;;;14.81;84.07;102103.16;5037655;28;20379;-58
2022/10/27 01:08:12;;;;;;;;;;;;;;;14.77;84.23;102093.81;5035789;28;19932;-58
2022/10/27 01:10:38;;;;;;;;;;;;;;;14.71;84.24;102092.63;5036817;28;19928;-59
2022/10/27 01:13:03;;;;;;;;;;;;;;;14.67;84.19;102101.13;5032239;28;19925;-59
2022/10/27 01:15:36;;;;;;;;;;;;;;;14.62;84.30;102104.31;5031653;28;19986;-59
2022/10/27 01:18:10;;;;;;;;;;;;;;;14.58;84.24;102111.00;5039674;28;20010;-59
2022/10/27 01:20:35;;;;;;;;;;;;;;;14.54;84.32;102105.16;5032812;28;19917;-58
2022/10/27 01:23:14;;;;;;;;;;;;;;;14.53;84.31;102106.16;5037706;28;20372;-58
2022/10/27 01:25:54;;;;;;;;;;;;;;;14.52;84.30;102103.66;5033079;28;19916;-58
2022/10/27 01:28:25;;;;;;;;;;;;;;;14.48;84.50;102097.81;5030785;28;20066;-58
2022/10/27 01:31:02;;;;;;;;;;;;;;;14.47;84.47;102104.16;5030822;28;20293;-57
2022/10/27 01:33:46;;;;;;;;;;;;;;;14.46;84.44;102102.47;5030122;28;19924;-58
2022/10/27 01:36:11;;;;;;;;;;;;;;;14.44;84.33;102100.94;5030022;28;20535;-59
2022/10/27 01:38:44;;;;;;;;;;;;;;;14.43;84.25;102105.44;5030991;28;20439;-59
2022/10/27 01:41:14;;;;;;;;;;;;;;;14.42;84.66;102109.09;5029882;28;19979;-59
2022/10/27 01:43:40;;;;;;;;;;;;;;;14.41;84.88;102111.94;5030187;28;20543;-59
2022/10/27 01:46:07;;;;;;;;;;;;;;;14.40;84.82;102116.44;5029814;28;19924;-59
2022/10/27 01:48:34;;;;;;;;;;;;;;;14.39;84.77;102112.09;5029092;28;19917;-59
2022/10/27 01:50:59;;;;;;;;;;;;;;;14.40;84.87;102118.28;5020601;28;20373;-59
2022/10/27 01:53:25;;;;;;;;;;;;;;;14.39;84.64;102117.44;5033253;28;19924;-59
2022/10/27 01:55:59;;;;;;;;;;;;;;;14.40;84.80;102115.59;5029326;28;19987;-59
2022/10/27 01:58:32;;;;;;;;;;;;;;;14.39;84.84;102112.09;5027698;28;19921;-58
2022/10/27 02:00:57;;;;;;;;;;;;;;;14.38;84.88;102115.78;5029296;28;20288;-59
2022/10/27 02:03:26;;;;;;;;;;;;;;;14.38;85.11;102109.59;5030392;28;20408;-59
2022/10/27 02:05:54;;;;;;;;;;;;;;;14.37;84.76;102107.91;5028592;28;19924;-58
2022/10/27 02:08:26;;;;;;;;;;;;;;;14.36;84.61;102093.72;5030560;28;19916;-59
2022/10/27 02:11:03;;;;;;;;;;;;;;;14.35;84.70;102101.91;5032721;28;19921;-59
2022/10/27 02:13:29;;;;;;;;;;;;;;;14.31;84.45;102095.22;5029636;28;20412;-59
2022/10/27 02:15:59;;;;;;;;;;;;;;;14.29;84.86;102094.56;5027484;28;20020;-57
2022/10/27 02:18:29;;;;;;;;;;;;;;;14.25;84.52;102094.88;5030918;28;19921;-58
2022/10/27 02:20:58;;;;;;;;;;;;;;;14.22;84.71;102089.88;5030333;28;19920;-58
2022/10/27 02:23:23;;;;;;;;;;;;;;;14.19;84.64;102086.69;5024157;28;19917;-59
2022/10/27 02:25:51;;;;;;;;;;;;;;;14.18;84.97;102090.38;5029727;28;19917;-59
2022/10/27 02:28:21;;;;;;;;;;;;;;;14.15;84.91;102090.66;5029606;28;19921;-59
2022/10/27 02:30:46;;;;;;;;;;;;;;;14.14;84.92;102081.81;5021833;28;19953;-59
2022/10/27 02:33:12;;;;;;;;;;;;;;;14.13;85.10;102087.31;5027980;28;20340;-58
2022/10/27 02:35:37;;;;;;;;;;;;;;;14.10;85.15;102087.66;5026865;28;19928;-58
2022/10/27 02:38:02;;;;;;;;;;;;;;;14.09;85.15;102091.31;5029852;28;20379;-58
2022/10/27 02:40:28;;;;;;;;;;;;;;;14.07;84.75;102090.66;5026130;28;19917;-58
2022/10/27 02:42:53;;;;;;;;;;;;;;;14.04;85.17;102089.16;5037345;28;20011;-59
2022/10/27 02:45:19;;;;;;;;;;;;;;;14.03;84.82;102082.13;5029339;28;19976;-59
2022/10/27 02:47:44;;;;;;;;;;;;;;;14.00;85.20;102079.78;5038526;28;19916;-59
2022/10/27 02:50:09;;;;;;;;;;;;;;;14.00;85.06;102081.63;5030688;28;19971;-59
2022/10/27 02:52:34;;;;;;;;;;;;;;;13.97;85.02;102072.09;5035404;28;19957;-58
2022/10/27 02:54:59;;;;;;;;;;;;;;;13.98;85.06;102075.63;5031838;28;20431;-58
2022/10/27 02:57:25;;;;;;;;;;;;;;;13.96;85.19;102075.78;5030787;28;19918;-59
2022/10/27 02:59:50;;;;;;;;;;;;;;;13.95;85.25;102079.44;5027666;28;20011;-59
2022/10/27 03:02:15;;;;;;;;;;;;;;;13.93;85.47;102066.25;5032834;28;19917;-59
2022/10/27 03:04:40;;;;;;;;;;;;;;;13.93;85.37;102066.25;5032216;28;19957;-58
2022/10/27 03:07:05;;;;;;;;;;;;;;;13.92;85.59;102072.59;5034499;28;20011;-58
2022/10/27 03:09:30;;;;;;;;;;;;;;;13.91;85.91;102062.91;5029127;28;20419;-59
2022/10/27 03:11:56;;;;;;;;;;;;;;;13.90;86.19;102060.41;5027853;28;19928;-57
2022/10/27 03:14:21;;;;;;;;;;;;;;;13.88;85.96;102060.56;5027619;28;19924;-57
2022/10/27 03:16:46;;;;;;;;;;;;;;;13.89;86.34;102050.72;5029546;28;19924;-56
2022/10/27 03:19:11;;;;;;;;;;;;;;;13.81;86.27;102040.84;5031493;28;20484;-59
2022/10/27 03:21:36;;;;;;;;;;;;;;;13.87;86.50;102050.88;5026170;28;19917;-57
2022/10/27 03:24:02;;;;;;;;;;;;;;;13.84;86.66;102051.19;5029082;28;19936;-59
2022/10/27 03:26:27;;;;;;;;;;;;;;;13.84;86.32;102045.84;5024220;28;19996;-59
2022/10/27 03:28:52;;;;;;;;;;;;;;;13.85;86.55;102038.69;5018832;28;19913;-59
2022/10/27 03:31:17;;;;;;;;;;;;;;;13.84;86.52;102042.34;5031191;28;20217;-59
2022/10/27 03:33:42;;;;;;;;;;;;;;;13.83;86.38;102044.19;5067095;22;20015;-60
2022/10/27 03:36:08;;;;;;;;;;;;;;;13.82;86.75;102047.84;5052701;28;19943;-60
2022/10/27 03:38:33;;;;;;;;;;;;;;;13.81;86.70;102048.84;5044389;28;19956;-60
2022/10/27 03:40:58;;;;;;;;;;;;;;;13.80;86.85;102049.84;5044773;28;19923;-59
2022/10/27 03:43:23;;;;;;;;;;;;;;;13.80;86.55;102044.50;5048225;28;19952;-60
2022/10/27 03:45:48;;;;;;;;;;;;;;;13.80;86.41;102047.19;5049690;28;19917;-61
2022/10/27 03:48:14;;;;;;;;;;;;;;;13.80;86.52;102044.50;5053567;28;19935;-60
2022/10/27 03:50:39;;;;;;;;;;;;;;;13.79;86.81;102042.84;5043629;28;19948;-60
2022/10/27 03:53:05;;;;;;;;;;;;;;;13.79;86.35;102042.00;5049606;28;19925;-60
2022/10/27 03:55:31;;;;;;;;;;;;;;;13.78;86.41;102037.66;5042594;28;20287;-60
2022/10/27 03:57:57;;;;;;;;;;;;;;;13.77;86.59;102022.63;5048502;28;20659;-60
2022/10/27 04:00:23;;;;;;;;;;;;;;;13.76;86.55;102026.31;5048344;28;19962;-60
2022/10/27 04:02:48;;;;;;;;;;;;;;;13.75;86.68;102041.50;5048306;28;19921;-60
2022/10/27 04:05:13;;;;;;;;;;;;;;;13.75;86.42;102036.16;5048381;28;20018;-61
2022/10/27 04:07:38;;;;;;;;;;;;;;;13.74;86.69;102036.31;5047707;28;20582;-60
2022/10/27 04:10:04;;;;;;;;;;;;;;;13.74;86.70;102044.31;5048053;28;19920;-61
2022/10/27 04:12:29;;;;;;;;;;;;;;;13.73;86.39;102048.81;5047417;28;20011;-59
2022/10/27 04:14:54;;;;;;;;;;;;;;;13.73;86.71;102048.81;5054784;28;19982;-61
2022/10/27 04:17:19;;;;;;;;;;;;;;;13.73;86.82;102053.34;5055954;28;20334;-60
2022/10/27 04:19:45;;;;;;;;;;;;;;;13.73;86.92;102058.66;5052124;28;19917;-60
2022/10/27 04:22:10;;;;;;;;;;;;;;;13.72;86.68;102062.34;5054738;28;19916;-60
2022/10/27 04:24:39;;;;;;;;;;;;;;;13.71;86.99;102058.84;5049664;28;20387;-60
2022/10/27 04:27:04;;;;;;;;;;;;;;;13.71;87.23;102066.00;5051066;28;19932;-61
2022/10/27 04:29:29;;;;;;;;;;;;;;;13.71;87.01;102068.69;5043553;28;19924;-61
2022/10/27 04:31:54;;;;;;;;;;;;;;;13.68;87.06;102059.16;5040865;28;19948;-59
2022/10/27 04:34:19;;;;;;;;;;;;;;;13.68;86.96;102064.50;5048600;28;19920;-61
2022/10/27 04:36:45;;;;;;;;;;;;;;;13.68;87.12;102072.50;5058032;28;19975;-60
2022/10/27 04:39:14;;;;;;;;;;;;;;;13.68;87.03;102071.66;5047389;28;20361;-61
2022/10/27 04:41:39;;;;;;;;;;;;;;;13.67;86.87;102070.84;5056203;28;19912;-60
2022/10/27 04:44:05;;;;;;;;;;;;;;;13.65;87.22;102067.50;5048990;28;19923;-61
2022/10/27 04:46:30;;;;;;;;;;;;;;;13.64;86.99;102060.47;5052176;28;19931;-60
2022/10/27 04:48:55;;;;;;;;;;;;;;;13.63;87.21;102066.81;5050729;28;19921;-60
2022/10/27 04:51:20;;;;;;;;;;;;;;;13.61;87.16;102066.16;5046634;28;19956;-60
2022/10/27 04:53:45;;;;;;;;;;;;;;;13.59;87.22;102068.13;5044742;28;20015;-60
2022/10/27 04:56:11;;;;;;;;;;;;;;;13.59;87.20;102068.13;5054904;28;19917;-59
2022/10/27 04:58:36;;;;;;;;;;;;;;;13.58;87.16;102061.94;5047768;28;20314;-58
2022/10/27 05:01:05;;;;;;;;;;;;;;;13.59;87.27;102066.31;5044181;28;20012;-60
2022/10/27 05:03:30;;;;;;;;;;;;;;;13.60;87.28;102067.97;5055688;28;19974;-61
2022/10/27 05:05:57;;;;;;;;;;;;;;;13.58;87.06;102061.09;5056004;28;19920;-59
2022/10/27 05:08:22;;;;;;;;;;;;;;;13.58;87.08;102071.78;5044108;28;20020;-61
2022/10/27 05:10:47;;;;;;;;;;;;;;;13.56;87.34;102069.28;5045674;28;20007;-60
2022/10/27 05:13:12;;;;;;;;;;;;;;;13.57;87.22;102070.09;5046628;28;19917;-59
2022/10/27 05:15:38;;;;;;;;;;;;;;;13.56;87.20;102068.44;5031937;28;20373;-59
2022/10/27 05:18:03;;;;;;;;;;;;;;;13.55;86.98;102054.25;5045953;28;19925;-61
2022/10/27 05:20:28;;;;;;;;;;;;;;;13.53;86.87;102055.41;5047008;28;20033;-60
2022/10/27 05:22:53;;;;;;;;;;;;;;;13.51;87.11;102054.75;5045499;28;19963;-60
2022/10/27 05:25:18;;;;;;;;;;;;;;;13.48;87.06;102069.25;5046589;28;19916;-60
2022/10/27 05:27:44;;;;;;;;;;;;;;;13.48;87.12;102063.91;5061100;28;19916;-60
2022/10/27 05:30:10;;;;;;;;;;;;;;;13.48;87.20;102063.06;5050846;28;19912;-61
2022/10/27 05:32:36;;;;;;;;;;;;;;;13.47;87.21;102053.38;5057086;28;19952;-60
2022/10/27 05:35:01;;;;;;;;;;;;;;;13.45;87.04;102050.88;5050318;28;20382;-60
2022/10/27 05:37:26;;;;;;;;;;;;;;;13.43;87.32;102055.53;5040949;28;19916;-61
2022/10/27 05:39:51;;;;;;;;;;;;;;;13.43;86.88;102054.72;5046089;28;20570;-61
2022/10/27 05:42:16;;;;;;;;;;;;;;;13.42;87.19;102051.19;5051118;28;20003;-61
2022/10/27 05:44:42;;;;;;;;;;;;;;;13.44;86.92;102059.88;5053201;28;19921;-60
2022/10/27 05:47:07;;;;;;;;;;;;;;;13.44;86.97;102054.53;5040828;28;20004;-59
2022/10/27 05:49:32;;;;;;;;;;;;;;;13.43;87.27;102052.03;5041568;28;19924;-61
2022/10/27 05:51:57;;;;;;;;;;;;;;;13.43;87.07;102046.69;5054777;28;19916;-61
2022/10/27 05:54:22;;;;;;;;;;;;;;;13.41;87.33;102046.03;5042533;28;19927;-61
2022/10/27 05:56:48;;;;;;;;;;;;;;;13.39;87.32;102040.00;5044069;28;20296;-59
2022/10/27 05:59:13;;;;;;;;;;;;;;;13.39;87.46;102043.53;5044508;28;20388;-59
2022/10/27 06:01:38;;;;;;;;;;;;;;;13.39;87.49;102050.69;5048232;28;19917;-61
2022/10/27 06:04:04;;;;;;;;;;;;;;;13.41;87.13;102048.69;5049840;28;20578;-60
2022/10/27 06:06:29;;;;;;;;;;;;;;;13.40;86.84;102047.03;5069246;28;19955;-60
2022/10/27 06:08:54;;;;;;;;;;;;;;;13.39;87.15;102048.84;5049161;28;19917;-59
2022/10/27 06:11:19;;;;;;;;;;;;;;;13.39;87.10;102046.19;5049113;28;20307;-60
2022/10/27 06:13:47;;;;;;;;;;;;;;;13.39;86.87;102040.00;5049691;28;19913;-61
2022/10/27 06:16:13;;;;;;;;;;;;;;;13.37;87.14;102037.50;5053760;28;19927;-60
2022/10/27 06:18:38;;;;;;;;;;;;;;;13.38;86.84;102039.19;5040903;28;19925;-60
2022/10/27 06:21:03;;;;;;;;;;;;;;;13.38;86.67;102038.34;5042848;28;19925;-60
2022/10/27 06:23:28;;;;;;;;;;;;;;;13.39;86.85;102045.34;5039917;28;20138;-60
2022/10/27 06:25:54;;;;;;;;;;;;;;;13.38;86.95;102038.34;5039054;28;19917;-60
2022/10/27 06:28:21;;;;;;;;;;;;;;;13.39;86.60;102035.50;5041658;28;19917;-61
2022/10/27 06:30:46;;;;;;;;;;;;;;;13.39;86.99;102035.50;5041623;28;19917;-61
2022/10/27 06:33:11;;;;;;;;;;;;;;;13.39;86.86;102035.50;5057397;28;19917;-59
2022/10/27 06:35:36;;;;;;;;;;;;;;;13.39;86.84;102029.34;5049821;28;19924;-60
2022/10/27 06:38:02;;;;;;;;;;;;;;;13.39;86.88;102040.84;5056228;28;19920;-60
2022/10/27 06:40:27;;;;;;;;;;;;;;;13.41;87.04;102038.03;5049330;28;19924;-59
2022/10/27 06:42:52;;;;;;;;;;;;;;;13.41;87.24;102035.34;5050807;28;19991;-60
2022/10/27 06:45:18;;;;;;;;;;;;;;;13.40;87.33;102033.69;5056477;28;20383;-60
2022/10/27 06:47:43;;;;;;;;;;;;;;;13.39;87.04;102032.00;5048174;28;19917;-59
2022/10/27 06:50:08;;;;;;;;;;;;;;;13.37;87.05;102023.34;5048023;28;20000;-60
2022/10/27 06:52:37;;;;;;;;;;;;;;;13.37;86.94;102018.00;5048156;28;19921;-60
2022/10/27 06:55:02;;;;;;;;;;;;;;;13.35;87.29;102026.16;5047819;28;19928;-60
2022/10/27 06:57:28;;;;;;;;;;;;;;;13.36;87.12;102019.00;5052292;28;19932;-59
2022/10/27 06:59:53;;;;;;;;;;;;;;;13.37;86.79;102015.31;5046390;28;20489;-59
2022/10/27 07:02:18;;;;;;;;;;;;;;;13.34;87.40;102013.81;5050475;28;19920;-59
2022/10/27 07:04:43;;;;;;;;;;;;;;;13.33;87.33;102009.47;5049162;28;20287;-60
2022/10/27 07:07:08;;;;;;;;;;;;;;;13.32;87.05;102016.66;5056445;28;20288;-59
2022/10/27 07:09:33;;;;;;;;;;;;;;;13.32;86.97;102013.16;5046618;28;19919;-60
2022/10/27 07:11:59;;;;;;;;;;;;;;;13.32;86.70;102027.31;5043510;28;19968;-59
2022/10/27 07:14:24;;;;;;;;;;;;;;;13.34;87.09;102021.81;5049306;28;20392;-60
2022/10/27 07:16:49;;;;;;;;;;;;;;;13.37;87.17;102026.00;5030707;28;19923;-61
2022/10/27 07:19:14;;;;;;;;;;;;;;;13.39;87.22;102022.19;5037341;28;20292;-59
2022/10/27 07:21:39;;;;;;;;;;;;;;;13.42;86.92;102021.00;5048986;28;20016;-60
2022/10/27 07:24:05;;;;;;;;;;;;;;;13.44;86.88;102025.19;5055301;28;20020;-59
2022/10/27 07:26:30;;;;;;;;;;;;;;;13.47;86.78;102027.53;5055777;28;19932;-59
2022/10/27 07:28:55;;;;;;;;;;;;;;;13.50;87.14;102027.22;5052935;28;19913;-59
2022/10/27 07:31:20;;;;;;;;;;;;;;;13.54;86.65;102023.22;5043996;28;19921;-60
2022/10/27 07:33:46;;;;;;;;;;;;;;;13.59;86.96;102006.75;5045722;28;20078;-58
2022/10/27 07:36:11;;;;;;;;;;;;;;;13.64;86.67;102012.44;5045706;28;19917;-60
2022/10/27 07:38:37;;;;;;;;;;;;;;;13.70;87.06;102009.13;5043132;28;19917;-60
2022/10/27 07:41:03;;;;;;;;;;;;;;;13.77;87.27;102011.97;5045814;28;19924;-59
2022/10/27 07:43:28;;;;;;;;;;;;;;;13.84;87.00;102005.78;5045605;28;19919;-61
2022/10/27 07:45:53;;;;;;;;;;;;;;;13.91;86.91;102009.50;5040281;28;19919;-61
2022/10/27 07:48:18;;;;;;;;;;;;;;;14.00;86.89;102012.19;5042158;28;20331;-61
2022/10/27 07:50:44;;;;;;;;;;;;;;;14.09;87.23;102012.03;5047194;28;19948;-59
2022/10/27 07:53:09;;;;;;;;;;;;;;;14.21;86.63;102016.06;5043072;28;19913;-61
2022/10/27 07:55:35;;;;;;;;;;;;;;;14.32;86.65;102028.25;5053280;28;19943;-59
2022/10/27 07:58:06;;;;;;;;;;;;;;;14.44;86.70;102023.44;5052339;28;19913;-61
2022/10/27 08:00:32;;;;;;;;;;;;;;;14.56;86.53;102022.13;5041911;28;20581;-60
2022/10/27 08:02:58;;;;;;;;;;;;;;;14.64;86.20;102030.13;5048951;28;20018;-59
2022/10/27 08:05:23;;;;;;;;;;;;;;;14.72;85.98;102019.41;5051443;28;20400;-60
2022/10/27 08:07:48;;;;;;;;;;;;;;;14.79;85.77;102023.09;5052969;28;20008;-60
2022/10/27 08:10:13;;;;;;;;;;;;;;;14.85;85.69;102024.25;5040021;28;20364;-60
2022/10/27 08:12:40;;;;;;;;;;;;;;;14.89;85.54;102020.25;5048863;28;19948;-59
2022/10/27 08:15:06;;;;;;;;;;;;;;;14.92;85.37;102019.06;5040934;28;19932;-61
2022/10/27 08:17:31;;;;;;;;;;;;;;;14.94;85.27;102017.88;5046181;28;19951;-60
2022/10/27 08:19:57;;;;;;;;;;;;;;;14.97;84.96;102017.53;5047473;28;20542;-60
2022/10/27 08:22:22;;;;;;;;;;;;;;;15.01;84.88;102018.03;5046446;28;19923;-60
2022/10/27 08:24:47;;;;;;;;;;;;;;;15.04;84.49;101999.81;5039976;28;20288;-61
2022/10/27 08:27:12;;;;;;;;;;;;;;;15.07;84.47;102006.66;5047361;28;20015;-60
2022/10/27 08:29:37;;;;;;;;;;;;;;;15.09;84.35;102010.84;5047347;28;19912;-59
2022/10/27 08:32:03;;;;;;;;;;;;;;;15.09;84.38;102012.69;5053470;28;19968;-59
2022/10/27 08:34:28;;;;;;;;;;;;;;;15.11;84.18;102006.16;5048099;28;19913;-60
2022/10/27 08:36:53;;;;;;;;;;;;;;;15.14;83.88;102003.13;5043253;28;20292;-59
2022/10/27 08:39:18;;;;;;;;;;;;;;;15.18;83.93;102004.44;5051000;28;19962;-59
2022/10/27 08:41:53;;;;;;;;;;;;;;;15.23;84.05;102003.91;5042415;28;20408;-60
2022/10/27 08:44:24;;;;;;;;;;;;;;;15.30;83.73;102002.22;5041944;28;20299;-59
2022/10/27 08:46:51;;;;;;;;;;;;;;;15.38;83.93;101993.34;5053476;28;19919;-60
2022/10/27 08:49:28;;;;;;;;;;;;;;;15.47;83.78;102006.50;5051775;28;19919;-60
2022/10/27 08:51:57;;;;;;;;;;;;;;;15.57;83.63;102000.09;5044160;28;19916;-60
2022/10/27 08:54:23;;;;;;;;;;;;;;;15.65;83.46;102000.13;5055840;28;19912;-61
2022/10/27 08:56:48;;;;;;;;;;;;;;;15.72;83.24;102001.91;5040163;28;19913;-61
2022/10/27 08:59:23;;;;;;;;;;;;;;;15.82;82.77;102000.84;5049401;28;20007;-61
2022/10/27 09:01:54;;;;;;;;;;;;;;;15.89;82.74;101991.06;5049449;28;20428;-59
2022/10/27 09:04:32;;;;;;;;;;;;;;;15.95;82.40;101979.69;5049516;28;19959;-59
2022/10/27 09:07:10;;;;;;;;;;;;;;;16.03;82.15;101987.66;5056524;28;20348;-61
2022/10/27 09:09:58;;;;;;;;;;;;;;;16.11;82.22;101974.19;5048698;28;20629;-61
2022/10/27 09:12:48;;;;;;;;;;;;;;;16.19;81.83;101968.78;5045942;28;20086;-61
2022/10/27 09:15:27;;;;;;;;;;;;;;;16.28;81.26;101969.53;5051797;28;19920;-60
2022/10/27 09:18:09;;;;;;;;;;;;;;;16.35;81.10;101957.91;5043906;28;19913;-59
2022/10/27 09:20:50;;;;;;;;;;;;;;;16.42;80.87;101950.78;5044294;28;20430;-60
2022/10/27 09:23:16;;;;;;;;;;;;;;;16.51;79.66;101961.47;5045567;28;19912;-60
2022/10/27 09:25:42;;;;;;;;;;;;;;;16.59;80.25;101958.69;5045918;28;19916;-60
2022/10/27 09:28:18;;;;;;;;;;;;;;;16.67;80.15;101961.31;5049763;28;19970;-61
2022/10/27 09:30:45;;;;;;;;;;;;;;;16.73;79.73;101957.91;5040717;28;19960;-60
2022/10/27 09:33:16;;;;;;;;;;;;;;;16.81;79.94;101951.63;5042684;28;19962;-60
2022/10/27 09:35:42;;;;;;;;;;;;;;;16.87;79.07;101951.72;5051021;28;19920;-61
2022/10/27 09:38:14;;;;;;;;;;;;;;;16.94;79.14;101944.59;5050866;28;19924;-61
2022/10/27 09:40:39;;;;;;;;;;;;;;;17.01;78.88;101940.13;5055011;28;19919;-61
2022/10/27 09:43:05;;;;;;;;;;;;;;;17.09;78.74;101947.28;5058686;28;19917;-59
2022/10/27 09:45:30;;;;;;;;;;;;;;;17.15;78.64;101943.84;5054842;28;20012;-61
2022/10/27 09:47:57;;;;;;;;;;;;;;;17.21;78.67;101940.41;5043933;28;20445;-61
2022/10/27 09:50:23;;;;;;;;;;;;;;;17.28;78.60;101932.44;5049027;28;19917;-61
2022/10/27 09:52:48;;;;;;;;;;;;;;;17.34;77.78;101937.03;5055760;28;19912;-61
2022/10/27 09:55:14;;;;;;;;;;;;;;;17.41;78.25;101932.59;5052735;28;19927;-61
2022/10/27 09:57:40;;;;;;;;;;;;;;;17.47;77.82;101931.84;5045721;28;20285;-61
2022/10/27 10:00:20;;;;;;;;;;;;;;;17.57;77.85;101932.34;5047213;28;19923;-60
2022/10/27 10:03:02;;;;;;;;;;;;;;;17.70;77.77;101938.94;5042046;28;19917;-61
2022/10/27 10:05:29;;;;;;;;;;;;;;;17.76;77.12;101941.69;5048008;28;19913;-61
2022/10/27 10:08:10;;;;;;;;;;;;;;;17.86;76.68;101942.22;5044060;28;19983;-60
2022/10/27 10:10:35;;;;;;;;;;;;;;;17.94;76.27;101930.53;5044452;28;19913;-61
2022/10/27 10:13:00;;;;;;;;;;;;;;;18.05;76.52;101931.84;5048998;28;19920;-61
2022/10/27 10:15:25;;;;;;;;;;;;;;;18.10;76.03;101924.84;5045666;28;19971;-60
2022/10/27 10:17:52;;;;;;;;;;;;;;;18.18;76.03;101911.28;5045266;28;19928;-61
2022/10/27 10:20:29;;;;;;;;;;;;;;;18.26;75.85;101918.38;5046078;28;19917;-60
2022/10/27 10:22:54;;;;;;;;;;;;;;;18.28;74.89;101913.63;5056802;28;19955;-60
2022/10/27 10:25:23;;;;;;;;;;;;;;;18.31;74.54;101910.56;5040217;28;19956;-60
2022/10/27 10:27:55;;;;;;;;;;;;;;;18.36;74.07;101918.88;5050335;28;19923;-60
2022/10/27 10:30:20;;;;;;;;;;;;;;;18.36;74.38;101921.56;5057134;28;20265;-60
2022/10/27 10:32:50;;;;;;;;;;;;;;;18.38;73.83;101916.81;5050415;28;20411;-60
2022/10/27 10:35:34;;;;;;;;;;;;;;;18.41;73.71;101907.53;5059332;28;19965;-60
2022/10/27 10:37:59;;;;;;;;;;;;;;;18.48;74.11;101908.38;5052767;28;19924;-60
2022/10/27 10:40:26;;;;;;;;;;;;;;;18.51;73.75;101910.72;5053563;28;19916;-60
2022/10/27 10:43:02;;;;;;;;;;;;;;;18.53;73.13;101914.88;5055382;28;19917;-61
2022/10/27 10:45:32;;;;;;;;;;;;;;;18.61;72.99;101903.13;5048764;28;19963;-61
2022/10/27 10:48:05;;;;;;;;;;;;;;;18.64;73.43;101904.59;5048362;28;20450;-60
2022/10/27 10:50:30;;;;;;;;;;;;;;;18.67;73.32;101905.03;5043734;28;20278;-61
2022/10/27 10:52:58;;;;;;;;;;;;;;;18.68;73.44;101901.31;5046461;28;19923;-61
2022/10/27 10:55:23;;;;;;;;;;;;;;;18.71;72.96;101898.22;5053897;28;19917;-60
2022/10/27 10:57:49;;;;;;;;;;;;;;;18.75;72.71;101894.09;5042527;28;19917;-61
2022/10/27 11:00:15;;;;;;;;;;;;;;;18.80;72.74;101894.38;5048631;28;19919;-60
2022/10/27 11:02:41;;;;;;;;;;;;;;;18.82;72.55;101889.59;5056299;28;19917;-60
2022/10/27 11:05:11;;;;;;;;;;;;;;;18.84;72.75;101884.03;5047824;28;19923;-61
2022/10/27 11:07:37;;;;;;;;;;;;;;;18.86;72.48;101882.78;5055735;28;20107;-61
2022/10/27 11:10:09;;;;;;;;;;;;;;;18.91;72.29;101879.50;5049609;28;20383;-60
2022/10/27 11:12:38;;;;;;;;;;;;;;;18.95;72.29;101888.00;5046782;28;19936;-61
2022/10/27 11:15:23;;;;;;;;;;;;;;;18.97;71.90;101888.63;5044515;28;19928;-60
2022/10/27 11:17:51;;;;;;;;;;;;;;;19.00;71.85;101890.91;5049098;28;19913;-60
2022/10/27 11:20:21;;;;;;;;;;;;;;;19.02;71.88;101897.75;5052595;28;19913;-60
2022/10/27 11:22:48;;;;;;;;;;;;;;;19.03;71.58;101890.50;5040906;28;19952;-60
2022/10/27 11:25:16;;;;;;;;;;;;;;;19.05;72.15;101885.75;5040941;28;19960;-60
2022/10/27 11:27:48;;;;;;;;;;;;;;;19.04;72.56;101884.09;5051805;28;19916;-60
2022/10/27 11:30:22;;;;;;;;;;;;;;;19.03;72.80;101885.97;5046990;28;20020;-60
2022/10/27 11:33:01;;;;;;;;;;;;;;;19.03;72.51;101885.97;5053639;28;19932;-59
2022/10/27 11:35:44;;;;;;;;;;;;;;;19.01;71.96;101877.25;5044591;28;20008;-60
2022/10/27 11:38:20;;;;;;;;;;;;;;;19.03;72.15;101874.34;5048089;28;19917;-60
2022/10/27 11:40:51;;;;;;;;;;;;;;;19.07;72.60;101865.66;5047081;28;19924;-61
2022/10/27 11:43:33;;;;;;;;;;;;;;;19.09;72.49;101863.63;5052142;28;20003;-61
2022/10/27 11:46:01;;;;;;;;;;;;;;;19.13;72.62;101866.75;5049352;28;20003;-60
2022/10/27 11:48:45;;;;;;;;;;;;;;;19.15;72.45;101862.81;5045804;28;20399;-61
2022/10/27 11:51:17;;;;;;;;;;;;;;;19.16;71.87;101860.97;5051506;28;19932;-61
2022/10/27 11:53:42;;;;;;;;;;;;;;;19.18;72.29;101867.81;5047146;28;20002;-60
2022/10/27 11:56:10;;;;;;;;;;;;;;;19.19;72.35;101858.69;5057616;28;20380;-61
2022/10/27 11:58:54;;;;;;;;;;;;;;;19.18;71.65;101857.03;5057485;28;19916;-60
2022/10/27 12:01:29;;;;;;;;;;;;;;;19.18;71.94;101850.81;5044931;28;20011;-61
2022/10/27 12:03:54;;;;;;;;;;;;;;;19.14;71.76;101849.56;5051290;28;19921;-61
2022/10/27 12:06:19;;;;;;;;;;;;;;;19.13;71.60;101855.97;5042326;28;19920;-61
2022/10/27 12:08:44;;;;;;;;;;;;;;;19.14;72.25;101841.50;5057064;28;19924;-61
2022/10/27 12:11:19;;;;;;;;;;;;;;;19.15;72.24;101841.28;5043981;28;19917;-61
2022/10/27 12:14:08;;;;;;;;;;;;;;;19.09;70.90;101833.19;5045683;28;19932;-61
2022/10/27 12:16:43;;;;;;;;;;;;;;;19.10;71.59;101835.69;5049910;28;19924;-61
2022/10/27 12:19:13;;;;;;;;;;;;;;;19.11;71.81;101833.81;5045760;28;19916;-61
2022/10/27 12:21:43;;;;;;;;;;;;;;;19.10;72.05;101832.16;5039643;28;19913;-61
2022/10/27 12:24:23;;;;;;;;;;;;;;;19.12;71.94;101827.41;5050141;28;20269;-61
2022/10/27 12:26:50;;;;;;;;;;;;;;;19.15;72.26;101816.22;5054171;28;20415;-61
2022/10/27 12:29:16;;;;;;;;;;;;;;;19.18;72.08;101813.13;5043745;28;19924;-62
2022/10/27 12:31:52;;;;;;;;;;;;;;;19.20;72.41;101808.34;5056146;28;19917;-61
2022/10/27 12:34:18;;;;;;;;;;;;;;;19.21;71.96;101799.25;5051464;28;20003;-61
2022/10/27 12:36:59;;;;;;;;;;;;;;;19.21;72.06;101791.16;5052492;28;20440;-61
2022/10/27 12:39:31;;;;;;;;;;;;;;;19.19;71.85;101779.75;5055211;28;20057;-60